createdAt,value
2023-05-02T00:00:11.558Z,17.65
2023-05-02T00:02:39.948Z,15.27
2023-05-02T00:05:09.010Z,20.65
2023-05-02T00:07:38.627Z,19.80
2023-05-02T00:10:08.885Z,18.93
2023-05-02T00:12:36.697Z,17.08
2023-05-02T00:15:05.300Z,18.48
2023-05-02T00:17:33.686Z,17.15
2023-05-02T00:20:01.745Z,14.50
2023-05-02T00:22:30.096Z,18.90
2023-05-02T00:24:58.646Z,15.63
2023-05-02T00:27:29.119Z,17.27
2023-05-02T00:29:57.658Z,18.65
2023-05-02T00:32:26.053Z,16.30
2023-05-02T00:34:53.912Z,18.48
2023-05-02T00:37:21.670Z,13.10
2023-05-02T00:39:52.227Z,18.67
2023-05-02T00:42:19.870Z,16.80
2023-05-02T00:44:49.634Z,15.88
2023-05-02T00:47:17.341Z,15.23
2023-05-02T00:49:46.065Z,17.85
2023-05-02T00:52:14.085Z,12.45
2023-05-02T00:54:42.427Z,13.32
2023-05-02T00:57:10.177Z,12.55
2023-05-02T00:59:38.920Z,9.63
2023-05-02T01:02:19.743Z,12.35
2023-05-02T01:04:57.641Z,10.75
2023-05-02T01:07:41.587Z,11.25
2023-05-02T01:10:21.625Z,9.25
2023-05-02T01:12:57.547Z,10.13
2023-05-02T01:15:26.714Z,8.48
2023-05-02T01:17:57.217Z,7.20
2023-05-02T01:22:59.440Z,8.77
2023-05-02T01:25:32.905Z,7.60
2023-05-02T01:28:11.499Z,4.88
2023-05-02T01:30:45.205Z,8.02
2023-05-02T01:33:16.966Z,7.22
2023-05-02T01:35:49.092Z,9.77
2023-05-02T01:38:19.054Z,9.20
2023-05-02T01:40:48.991Z,7.38
2023-05-02T01:43:18.659Z,8.98
2023-05-02T01:45:51.006Z,7.57
2023-05-02T01:48:20.867Z,7.03
2023-05-02T01:50:50.311Z,6.75
2023-05-02T01:53:18.709Z,7.43
2023-05-02T01:55:47.825Z,6.90
2023-05-02T01:58:19.087Z,8.00
2023-05-02T02:00:49.199Z,7.80
2023-05-02T02:03:19.301Z,8.75
2023-05-02T02:05:50.313Z,8.35
2023-05-02T02:08:18.526Z,9.18
2023-05-02T02:10:51.413Z,8.07
2023-05-02T02:13:21.221Z,7.10
2023-05-02T02:15:54.715Z,5.57
2023-05-02T02:18:26.428Z,7.07
2023-05-02T02:20:58.186Z,8.10
2023-05-02T02:23:29.557Z,13.07
2023-05-02T02:25:58.612Z,9.80
2023-05-02T02:28:26.438Z,6.60
2023-05-02T02:30:56.319Z,6.63
2023-05-02T02:33:30.575Z,8.30
2023-05-02T02:36:04.598Z,7.05
2023-05-02T02:38:42.879Z,8.23
2023-05-02T02:41:17.209Z,5.97
2023-05-02T02:43:54.753Z,7.85
2023-05-02T02:46:36.218Z,7.97
2023-05-02T02:49:16.255Z,7.18
2023-05-02T02:51:48.418Z,5.18
2023-05-02T02:54:30.528Z,7.85
2023-05-02T02:57:06.808Z,10.23
2023-05-02T02:59:36.711Z,7.80
2023-05-02T03:02:09.558Z,8.75
2023-05-02T03:04:40.335Z,7.60
2023-05-02T03:07:08.510Z,6.53
2023-05-02T03:09:43.236Z,6.88
2023-05-02T03:12:11.716Z,10.00
2023-05-02T03:14:40.323Z,8.27
2023-05-02T03:17:09.370Z,7.70
2023-05-02T03:19:38.400Z,7.63
2023-05-02T03:22:06.943Z,10.98
2023-05-02T03:24:34.613Z,9.48
2023-05-02T03:27:03.361Z,7.05
2023-05-02T03:29:31.236Z,8.07
2023-05-02T03:31:59.436Z,7.95
2023-05-02T03:34:28.596Z,10.77
2023-05-02T03:36:57.400Z,6.15
2023-05-02T03:39:25.622Z,5.60
2023-05-02T03:41:53.774Z,6.05
2023-05-02T03:44:21.870Z,7.03
2023-05-02T03:46:49.991Z,8.75
2023-05-02T03:49:19.491Z,7.50
2023-05-02T03:51:49.263Z,8.75
2023-05-02T03:54:16.866Z,8.47
2023-05-02T03:56:46.154Z,6.45
2023-05-02T03:59:14.473Z,7.68
2023-05-02T04:01:42.320Z,9.02
2023-05-02T04:04:11.696Z,5.78
2023-05-02T04:06:40.341Z,6.72
2023-05-02T04:09:09.720Z,7.90
2023-05-02T04:11:37.423Z,5.32
2023-05-02T04:14:05.681Z,8.75
2023-05-02T04:16:36.483Z,6.03
2023-05-02T04:19:05.455Z,4.65
2023-05-02T04:21:33.129Z,6.70
2023-05-02T04:24:01.220Z,7.72
2023-05-02T04:26:30.635Z,10.52
2023-05-02T04:28:58.327Z,5.72
2023-05-02T04:31:27.233Z,5.63
2023-05-02T04:33:55.068Z,7.63
2023-05-02T04:36:23.238Z,5.53
2023-05-02T04:38:50.937Z,9.95
2023-05-02T04:41:19.825Z,4.53
2023-05-02T04:43:48.897Z,5.57
2023-05-02T04:46:17.762Z,8.93
2023-05-02T04:48:46.046Z,8.75
2023-05-02T04:51:16.261Z,7.57
2023-05-02T04:53:45.161Z,6.82
2023-05-02T04:56:12.811Z,13.18
2023-05-02T04:58:41.471Z,9.15
2023-05-02T05:01:10.571Z,7.75
2023-05-02T05:03:38.518Z,7.90
2023-05-02T05:06:06.814Z,10.55
2023-05-02T05:08:34.570Z,6.97
2023-05-02T05:11:04.291Z,10.73
2023-05-02T05:13:31.987Z,10.30
2023-05-02T05:16:00.113Z,4.90
2023-05-02T05:18:29.211Z,8.48
2023-05-02T05:20:57.429Z,24.77
2023-05-02T05:23:25.639Z,8.15
2023-05-02T05:25:53.326Z,10.55
2023-05-02T05:28:21.318Z,8.55
2023-05-02T05:30:49.038Z,7.50
2023-05-02T05:33:17.404Z,5.97
2023-05-02T05:35:46.531Z,8.48
2023-05-02T05:38:15.364Z,7.28
2023-05-02T05:40:43.056Z,10.77
2023-05-02T05:43:11.205Z,8.15
2023-05-02T05:45:38.944Z,8.55
2023-05-02T05:48:07.568Z,9.13
2023-05-02T05:50:36.002Z,10.88
2023-05-02T05:53:04.994Z,10.65
2023-05-02T05:55:32.740Z,6.28
2023-05-02T05:58:01.677Z,10.45
2023-05-02T06:00:29.883Z,8.95
2023-05-02T06:02:57.795Z,8.90
2023-05-02T06:05:26.091Z,7.57
2023-05-02T06:07:53.781Z,8.50
2023-05-02T06:10:23.152Z,6.53
2023-05-02T06:12:51.031Z,4.95
2023-05-02T06:15:19.510Z,8.85
2023-05-02T06:17:47.204Z,6.72
2023-05-02T06:20:16.665Z,7.53
2023-05-02T06:22:46.139Z,11.07
2023-05-02T06:25:13.786Z,7.90
2023-05-02T06:27:43.024Z,8.65
2023-05-02T06:30:11.167Z,7.93
2023-05-02T06:32:39.073Z,11.38
2023-05-02T06:35:07.546Z,8.57
2023-05-02T06:37:35.962Z,11.25
2023-05-02T06:40:05.183Z,10.45
2023-05-02T06:42:32.874Z,16.45
2023-05-02T06:45:01.950Z,10.55
2023-05-02T06:47:30.062Z,11.45
2023-05-02T06:49:57.881Z,14.32
2023-05-02T06:52:26.021Z,9.38
2023-05-02T06:54:53.662Z,11.60
2023-05-02T06:57:21.383Z,12.77
2023-05-02T06:59:50.230Z,10.95
2023-05-02T07:02:19.795Z,10.25
2023-05-02T07:04:47.530Z,12.88
2023-05-02T07:07:19.302Z,14.50
2023-05-02T07:09:47.111Z,15.63
2023-05-02T07:12:15.332Z,10.90
2023-05-02T07:14:43.299Z,10.52
2023-05-02T07:17:11.459Z,13.00
2023-05-02T07:19:41.380Z,10.27
2023-05-02T07:22:10.397Z,16.67
2023-05-02T07:24:41.284Z,9.77
2023-05-02T07:27:09.772Z,14.50
2023-05-02T07:29:38.155Z,8.98
2023-05-02T07:32:06.420Z,10.00
2023-05-02T07:34:34.574Z,9.82
2023-05-02T07:37:03.516Z,8.38
2023-05-02T07:39:32.402Z,9.00
2023-05-02T07:42:00.492Z,10.15
2023-05-02T07:44:28.604Z,9.38
2023-05-02T07:46:56.471Z,9.82
2023-05-02T07:49:24.767Z,10.27
2023-05-02T07:51:52.398Z,10.55
2023-05-02T07:54:23.453Z,11.05
2023-05-02T07:56:51.216Z,12.77
2023-05-02T07:59:19.959Z,9.40
2023-05-02T08:01:47.740Z,9.93
2023-05-02T08:04:16.389Z,7.28
2023-05-02T08:06:45.534Z,7.97
2023-05-02T08:09:13.928Z,10.32
2023-05-02T08:11:43.468Z,7.50
2023-05-02T08:14:11.564Z,8.00
2023-05-02T08:16:39.277Z,9.55
2023-05-02T08:19:08.152Z,7.43
2023-05-02T08:21:36.440Z,9.93
2023-05-02T08:24:04.710Z,9.25
2023-05-02T08:26:32.310Z,6.35
2023-05-02T08:29:01.986Z,6.53
2023-05-02T08:31:29.661Z,9.37
2023-05-02T08:33:57.778Z,9.63
2023-05-02T08:36:26.105Z,8.82
2023-05-02T08:38:53.773Z,6.93
2023-05-02T08:41:22.190Z,7.18
2023-05-02T08:43:50.330Z,7.55
2023-05-02T08:46:19.482Z,4.88
2023-05-02T08:48:49.340Z,5.32
2023-05-02T08:53:48.422Z,11.82
2023-05-02T08:56:16.111Z,4.30
2023-05-02T08:58:43.772Z,5.55
2023-05-02T09:01:15.670Z,8.98
2023-05-02T09:03:46.700Z,6.35
2023-05-02T09:06:17.147Z,4.80
2023-05-02T09:11:14.342Z,5.30
2023-05-02T09:13:43.670Z,5.68
2023-05-02T09:16:12.546Z,8.18
2023-05-02T09:18:41.889Z,4.78
2023-05-02T09:21:12.981Z,6.53
2023-05-02T09:23:42.730Z,5.88
2023-05-02T09:26:18.732Z,4.20
2023-05-02T09:28:48.000Z,5.97
2023-05-02T09:31:26.794Z,5.35
2023-05-02T09:34:10.040Z,5.85
2023-05-02T09:36:43.080Z,6.97
2023-05-02T09:39:13.388Z,5.72
2023-05-02T09:41:41.695Z,4.95
2023-05-02T09:44:12.990Z,4.38
2023-05-02T09:46:41.895Z,6.30
2023-05-02T09:49:10.164Z,5.70
2023-05-02T09:51:38.331Z,8.50
2023-05-02T09:54:08.167Z,4.53
2023-05-02T09:56:53.083Z,7.55
2023-05-02T09:59:21.210Z,5.15
2023-05-02T10:01:56.982Z,6.25
2023-05-02T10:04:27.335Z,4.47
2023-05-02T10:06:56.270Z,5.18
2023-05-02T10:09:27.888Z,5.70
2023-05-02T10:11:57.838Z,6.13
2023-05-02T10:14:29.734Z,5.18
2023-05-02T10:17:02.501Z,6.70
2023-05-02T10:19:35.651Z,5.25
2023-05-02T10:22:04.802Z,4.20
2023-05-02T10:24:35.108Z,5.25
2023-05-02T10:27:05.930Z,4.00
2023-05-02T10:29:34.812Z,5.45
2023-05-02T10:32:06.056Z,3.47
2023-05-02T10:34:34.436Z,4.00
2023-05-02T10:37:02.906Z,3.72
2023-05-02T10:39:31.343Z,5.30
2023-05-02T10:42:03.284Z,5.25
2023-05-02T10:44:35.282Z,9.02
2023-05-02T10:47:19.176Z,6.57
2023-05-02T10:49:54.338Z,9.13
2023-05-02T10:52:30.475Z,3.75
2023-05-02T10:55:17.807Z,3.80
2023-05-02T10:58:28.311Z,5.32
2023-05-02T11:01:43.186Z,6.70
2023-05-02T11:04:11.892Z,4.65
2023-05-02T11:07:14.795Z,4.63
2023-05-02T11:09:42.519Z,5.70
2023-05-02T11:12:10.602Z,6.15
2023-05-02T11:14:49.601Z,5.75
2023-05-02T11:17:21.841Z,5.88
2023-05-02T11:20:29.130Z,6.43
2023-05-02T11:22:58.980Z,6.95
2023-05-02T11:25:34.144Z,7.65
2023-05-02T11:28:02.727Z,13.60
2023-05-02T11:30:41.614Z,8.88
2023-05-02T11:33:17.767Z,7.20
2023-05-02T11:35:47.162Z,11.57
2023-05-02T11:38:17.146Z,9.82
2023-05-02T11:43:39.671Z,11.27
2023-05-02T11:46:07.854Z,14.35
2023-05-02T11:48:37.024Z,10.50
2023-05-02T11:51:07.420Z,15.60
2023-05-02T11:56:04.928Z,17.70
2023-05-02T11:58:34.133Z,11.05
2023-05-02T12:01:15.455Z,15.65
2023-05-02T12:03:45.581Z,10.38
2023-05-02T12:06:15.946Z,10.30
2023-05-02T12:08:45.482Z,8.02
2023-05-02T12:11:15.362Z,11.52
2023-05-02T12:13:47.637Z,8.98
2023-05-02T12:16:15.784Z,6.38
2023-05-02T12:18:46.340Z,6.30
2023-05-02T12:21:14.279Z,6.00
2023-05-02T12:23:43.292Z,8.88
2023-05-02T12:26:21.899Z,5.35
2023-05-02T12:28:52.521Z,11.48
2023-05-02T12:31:20.749Z,10.25
2023-05-02T12:33:52.346Z,7.43
2023-05-02T12:36:20.934Z,9.43
2023-05-02T12:38:53.806Z,9.48
2023-05-02T12:41:33.436Z,6.43
2023-05-02T12:44:02.008Z,7.05
2023-05-02T12:46:30.067Z,8.10
2023-05-02T12:49:07.062Z,8.30
2023-05-02T12:51:35.049Z,7.45
2023-05-02T12:54:03.002Z,7.40
2023-05-02T12:56:32.997Z,9.93
2023-05-02T12:59:04.840Z,12.50
2023-05-02T13:01:35.809Z,9.18
2023-05-02T13:04:05.709Z,6.53
2023-05-02T13:06:34.030Z,14.57
2023-05-02T13:09:02.156Z,12.95
2023-05-02T13:11:29.829Z,7.80
2023-05-02T13:13:57.842Z,12.20
2023-05-02T13:16:25.933Z,11.60
2023-05-02T13:18:53.878Z,9.30
2023-05-02T13:21:23.987Z,10.20
2023-05-02T13:23:52.227Z,10.48
2023-05-02T13:26:20.277Z,11.27
2023-05-02T13:28:48.372Z,10.32
2023-05-02T13:31:16.123Z,12.57
2023-05-02T13:33:44.236Z,12.55
2023-05-02T13:36:11.876Z,10.90
2023-05-02T13:38:41.013Z,7.15
2023-05-02T13:41:09.349Z,14.05
2023-05-02T13:43:37.170Z,9.63
2023-05-02T13:46:05.000Z,10.75
2023-05-02T13:48:33.770Z,14.30
2023-05-02T13:51:02.074Z,10.57
2023-05-02T13:53:30.303Z,14.20
2023-05-02T13:55:59.329Z,10.43
2023-05-02T13:58:26.927Z,10.52
2023-05-02T14:00:55.017Z,11.20
2023-05-02T14:03:22.720Z,11.23
2023-05-02T14:05:50.389Z,8.68
2023-05-02T14:08:20.266Z,13.57
2023-05-02T14:10:47.914Z,9.07
2023-05-02T14:13:16.935Z,8.00
2023-05-02T14:15:44.984Z,12.57
2023-05-02T14:18:12.747Z,11.93
2023-05-02T14:20:40.725Z,8.80
2023-05-02T14:23:08.403Z,6.43
2023-05-02T14:25:36.783Z,10.98
2023-05-02T14:28:06.674Z,11.00
2023-05-02T14:30:35.884Z,7.55
2023-05-02T14:33:03.626Z,6.68
2023-05-02T14:35:31.775Z,11.68
2023-05-02T14:37:59.457Z,10.45
2023-05-02T14:40:27.391Z,7.05
2023-05-02T14:42:56.105Z,7.80
2023-05-02T14:45:23.785Z,12.95
2023-05-02T14:47:53.476Z,10.25
2023-05-02T14:50:21.591Z,9.63
2023-05-02T14:52:49.305Z,7.60
2023-05-02T14:55:17.482Z,9.77
2023-05-02T14:57:45.698Z,8.25
2023-05-02T15:00:14.651Z,9.10
2023-05-02T15:02:43.541Z,9.90
2023-05-02T15:05:13.054Z,7.50
2023-05-02T15:07:41.168Z,5.70
2023-05-02T15:10:10.311Z,9.38
2023-05-02T15:12:38.451Z,8.82
2023-05-02T15:15:08.985Z,10.13
2023-05-02T15:20:05.491Z,8.93
2023-05-02T15:22:35.861Z,11.45
2023-05-02T15:25:05.367Z,7.40
2023-05-02T15:27:33.285Z,6.67
2023-05-02T15:30:03.589Z,12.27
2023-05-02T15:34:59.091Z,7.30
2023-05-02T15:37:27.211Z,11.93
2023-05-02T15:39:56.348Z,10.77
2023-05-02T15:42:24.996Z,11.23
2023-05-02T15:44:53.909Z,11.85
2023-05-02T15:47:22.610Z,9.38
2023-05-02T15:49:53.704Z,11.10
2023-05-02T15:52:22.756Z,7.43
2023-05-02T15:54:51.506Z,10.30
2023-05-02T15:57:21.150Z,9.85
2023-05-02T15:59:49.236Z,11.90
2023-05-02T16:02:16.931Z,9.93
2023-05-02T16:04:44.606Z,8.13
2023-05-02T16:07:14.326Z,8.35
2023-05-02T16:09:42.509Z,8.83
2023-05-02T16:12:10.647Z,8.45
2023-05-02T16:14:40.044Z,9.23
2023-05-02T16:17:07.754Z,13.25
2023-05-02T16:19:35.403Z,10.15
2023-05-02T16:22:03.532Z,8.48
2023-05-02T16:24:31.161Z,9.20
2023-05-02T16:26:58.938Z,13.40
2023-05-02T16:29:27.850Z,6.63
2023-05-02T16:31:57.031Z,8.90
2023-05-02T16:34:24.924Z,10.35
2023-05-02T16:36:53.407Z,8.90
2023-05-02T16:39:20.991Z,8.60
2023-05-02T16:41:49.292Z,9.68
2023-05-02T16:44:18.053Z,6.30
2023-05-02T16:46:46.142Z,8.32
2023-05-02T16:49:15.848Z,6.38
2023-05-02T16:51:43.519Z,6.83
2023-05-02T16:54:11.688Z,9.18
2023-05-02T16:56:41.327Z,9.32
2023-05-02T16:59:10.241Z,7.53
2023-05-02T17:01:38.047Z,13.93
2023-05-02T17:04:06.470Z,10.05
2023-05-02T17:06:35.620Z,8.80
2023-05-02T17:09:04.094Z,6.43
2023-05-02T17:11:31.794Z,10.43
2023-05-02T17:13:59.920Z,10.93
2023-05-02T17:16:27.595Z,8.25
2023-05-02T17:18:55.691Z,12.73
2023-05-02T17:21:23.525Z,12.45
2023-05-02T17:23:53.660Z,6.38
2023-05-02T17:26:22.063Z,6.97
2023-05-02T17:28:53.754Z,11.07
2023-05-02T17:31:22.000Z,9.20
2023-05-02T17:33:49.896Z,7.05
2023-05-02T17:36:18.068Z,9.43
2023-05-02T17:38:45.795Z,8.32
2023-05-02T17:41:15.751Z,6.55
2023-05-02T17:43:43.534Z,10.43
2023-05-02T17:46:12.637Z,8.30
2023-05-02T17:48:43.815Z,7.05
2023-05-02T17:51:11.753Z,10.10
2023-05-02T17:53:39.908Z,6.78
2023-05-02T17:56:08.155Z,8.55
2023-05-02T17:58:37.901Z,7.25
2023-05-02T18:01:09.530Z,6.15
2023-05-02T18:03:37.567Z,10.38
2023-05-02T18:06:06.574Z,12.23
2023-05-02T18:08:34.858Z,10.95
2023-05-02T18:11:03.210Z,15.20
2023-05-02T18:13:31.533Z,8.55
2023-05-02T18:16:01.903Z,9.80
2023-05-02T18:18:29.982Z,9.20
2023-05-02T18:20:57.649Z,6.63
2023-05-02T18:23:25.387Z,9.20
2023-05-02T18:25:54.248Z,8.60
2023-05-02T18:28:21.964Z,11.07
2023-05-02T18:30:49.659Z,7.53
2023-05-02T18:33:19.231Z,10.27
2023-05-02T18:35:47.931Z,8.23
2023-05-02T18:38:16.113Z,5.60
2023-05-02T18:40:44.381Z,6.97
2023-05-02T18:43:12.051Z,12.77
2023-05-02T18:48:27.785Z,11.88
2023-05-02T18:50:57.029Z,6.07
2023-05-02T18:53:26.413Z,9.05
2023-05-02T18:55:54.379Z,5.10
2023-05-02T18:58:22.907Z,8.00
2023-05-02T19:00:50.995Z,10.35
2023-05-02T19:03:18.991Z,10.75
2023-05-02T19:05:51.202Z,10.10
2023-05-02T19:08:19.026Z,9.10
2023-05-02T19:10:46.691Z,7.40
2023-05-02T19:13:14.917Z,12.40
2023-05-02T19:15:43.101Z,10.52
2023-05-02T19:18:10.832Z,13.35
2023-05-02T19:20:39.091Z,10.85
2023-05-02T19:23:19.785Z,14.30
2023-05-02T19:25:49.661Z,10.82
2023-05-02T19:28:17.321Z,10.52
2023-05-02T19:30:45.498Z,7.78
2023-05-02T19:33:13.813Z,8.43
2023-05-02T19:35:41.599Z,7.05
2023-05-02T19:38:10.641Z,8.07
2023-05-02T19:40:38.716Z,10.23
2023-05-02T19:43:06.355Z,7.32
2023-05-02T19:45:34.094Z,5.40
2023-05-02T19:48:02.943Z,8.13
2023-05-02T19:50:30.609Z,9.13
2023-05-02T19:52:58.621Z,11.23
2023-05-02T19:55:27.665Z,8.35
2023-05-02T19:57:55.304Z,8.07
2023-05-02T20:00:23.541Z,10.75
2023-05-02T20:02:51.741Z,6.75
2023-05-02T20:05:19.730Z,9.90
2023-05-02T20:07:48.216Z,10.40
2023-05-02T20:10:18.219Z,6.70
2023-05-02T20:12:47.688Z,6.80
2023-05-02T20:15:16.673Z,8.38
2023-05-02T20:17:44.453Z,6.20
2023-05-02T20:20:13.666Z,6.90
2023-05-02T20:22:41.374Z,10.40
2023-05-02T20:25:11.443Z,7.00
2023-05-02T20:27:40.549Z,8.70
2023-05-02T20:30:10.482Z,7.22
2023-05-02T20:32:38.245Z,7.72
2023-05-02T20:35:06.815Z,8.25
2023-05-02T20:37:34.553Z,10.23
2023-05-02T20:40:02.740Z,10.27
2023-05-02T20:42:30.564Z,8.07
2023-05-02T20:45:00.592Z,6.35
2023-05-02T20:47:31.321Z,4.55
2023-05-02T20:49:59.041Z,7.97
2023-05-02T20:52:27.189Z,8.10
2023-05-02T20:54:55.462Z,8.38
2023-05-02T20:57:24.584Z,5.45
2023-05-02T20:59:52.273Z,4.00
2023-05-02T21:02:19.991Z,6.22
2023-05-02T21:04:49.316Z,4.82
2023-05-02T21:07:16.974Z,5.85
2023-05-02T21:09:45.729Z,6.85
2023-05-02T21:12:13.923Z,8.77
2023-05-02T21:14:41.606Z,6.00
2023-05-02T21:17:09.717Z,10.73
2023-05-02T21:19:37.660Z,5.93
2023-05-02T21:22:07.099Z,5.57
2023-05-02T21:24:35.092Z,7.13
2023-05-02T21:27:02.954Z,3.35
2023-05-02T21:29:31.605Z,5.50
2023-05-02T21:31:59.258Z,5.50
2023-05-02T21:34:27.433Z,6.25
2023-05-02T21:36:55.087Z,4.45
2023-05-02T21:39:24.154Z,5.70
2023-05-02T21:41:52.179Z,7.35
2023-05-02T21:44:19.826Z,4.25
2023-05-02T21:46:48.163Z,5.40
2023-05-02T21:49:16.699Z,4.85
2023-05-02T21:51:44.992Z,3.95
2023-05-02T21:54:12.631Z,6.43
2023-05-02T21:56:41.643Z,4.45
2023-05-02T21:59:09.758Z,4.38
2023-05-02T22:01:37.380Z,5.55
2023-05-02T22:04:05.388Z,6.00
2023-05-02T22:06:34.656Z,5.03
2023-05-02T22:09:02.367Z,6.03
2023-05-02T22:11:31.844Z,6.57
2023-05-02T22:14:00.851Z,6.45
2023-05-02T22:16:28.573Z,4.75
2023-05-02T22:18:58.127Z,3.75
2023-05-02T22:21:25.925Z,5.13
2023-05-02T22:23:53.998Z,5.97
2023-05-02T22:26:22.738Z,4.10
2023-05-02T22:28:50.816Z,6.68
2023-05-02T22:31:21.423Z,6.53
2023-05-02T22:36:18.596Z,4.43
2023-05-02T22:38:46.734Z,6.82
2023-05-02T22:41:14.450Z,5.38
2023-05-02T22:43:42.509Z,5.22
2023-05-02T22:46:10.230Z,4.00
2023-05-02T22:48:40.349Z,4.43
2023-05-02T22:51:08.134Z,4.28
2023-05-02T22:53:36.296Z,4.10
2023-05-02T22:56:04.732Z,5.90
2023-05-02T22:58:32.643Z,9.10
2023-05-02T23:01:00.662Z,6.47
2023-05-02T23:03:28.436Z,7.85
2023-05-02T23:05:58.680Z,5.35
2023-05-02T23:08:26.419Z,6.55
2023-05-02T23:10:54.087Z,8.38
2023-05-02T23:13:22.092Z,4.20
2023-05-02T23:15:54.399Z,3.50
2023-05-02T23:18:22.528Z,6.68
2023-05-02T23:20:50.218Z,8.18
2023-05-02T23:23:19.264Z,6.50
2023-05-02T23:25:47.485Z,4.68
2023-05-02T23:28:15.146Z,7.18
2023-05-02T23:30:43.153Z,9.23
2023-05-02T23:33:12.198Z,3.65
2023-05-02T23:35:40.322Z,4.68
2023-05-02T23:38:08.725Z,7.63
2023-05-02T23:40:38.102Z,4.63
2023-05-02T23:43:07.353Z,4.22
2023-05-02T23:45:35.369Z,6.38
2023-05-02T23:48:03.170Z,7.93
2023-05-02T23:50:32.867Z,5.07
2023-05-02T23:53:01.142Z,5.70
2023-05-02T23:55:29.346Z,4.68
2023-05-02T23:57:58.898Z,5.57
